Time,TemperatureF,DewpointF,PressureIn,WindDirection,WindDirectionDegrees,WindSpeedMPH,WindSpeedGustMPH,Humidity,HourlyPrecipIn,Conditions,Clouds,dailyrainin,SoftwareType,DateUTC
2013-06-01 00:01:00,43.0,17.0,-100.00,East,82,4.0,6.0,34,-99.99,,,-99.99,,2013-06-01 06:01:00,
2013-06-01 00:12:00,42.0,16.0,-100.00,North,351,2.0,8.0,34,-99.99,,,-99.99,,2013-06-01 06:12:00,
2013-06-01 00:22:00,42.0,16.0,-100.00,NW,320,1.0,4.0,34,-99.99,,,-99.99,,2013-06-01 06:22:00,
2013-06-01 00:32:00,42.0,18.0,-100.00,NNE,24,2.0,10.0,38,-99.99,,,-99.99,,2013-06-01 06:32:00,
2013-06-01 00:41:00,41.0,20.0,-100.00,East,95,4.0,7.0,42,-99.99,,,-99.99,,2013-06-01 06:41:00,
2013-06-01 00:51:00,39.0,20.0,-100.00,NNE,26,6.0,7.0,44,-99.99,,,-99.99,,2013-06-01 06:51:00,
2013-06-01 01:01:00,40.0,19.0,-100.00,NNE,27,3.0,6.0,41,-99.99,,,-99.99,,2013-06-01 07:01:00,
2013-06-01 01:11:00,37.0,19.0,-100.00,NE,37,2.0,5.0,48,-99.99,,,-99.99,,2013-06-01 07:11:00,
2013-06-01 01:21:00,35.0,19.0,-100.00,NNE,24,3.0,3.0,51,-99.99,,,-99.99,,2013-06-01 07:21:00,
2013-06-01 01:31:00,36.0,19.0,-100.00,NE,45,6.0,6.0,48,-99.99,,,-99.99,,2013-06-01 07:31:00,
2013-06-01 01:42:00,41.0,21.0,-100.00,ENE,61,9.0,10.0,43,-99.99,,,-99.99,,2013-06-01 07:42:00,
2013-06-01 01:52:00,43.0,20.0,-100.00,NE,51,9.0,11.0,39,-99.99,,,-99.99,,2013-06-01 07:52:00,
2013-06-01 02:02:00,42.0,20.0,-100.00,NE,42,14.0,14.0,40,-99.99,,,-99.99,,2013-06-01 08:02:00,
2013-06-01 02:11:00,41.0,21.0,-100.00,NE,39,14.0,15.0,44,-99.99,,,-99.99,,2013-06-01 08:11:00,
2013-06-01 02:21:00,42.0,21.0,-100.00,NE,34,14.0,14.0,42,-99.99,,,-99.99,,2013-06-01 08:21:00,
2013-06-01 02:32:00,42.0,21.0,-100.00,NE,46,10.0,14.0,43,-99.99,,,-99.99,,2013-06-01 08:32:00,
2013-06-01 02:42:00,42.0,21.0,-100.00,NE,46,10.0,14.0,43,-99.99,,,-99.99,,2013-06-01 08:42:00,
2013-06-01 02:51:00,40.0,21.0,-100.00,NE,43,10.0,11.0,47,-99.99,,,-99.99,,2013-06-01 08:51:00,
2013-06-01 03:01:00,40.0,21.0,-100.00,NE,36,8.0,12.0,45,-99.99,,,-99.99,,2013-06-01 09:01:00,
2013-06-01 03:12:00,40.0,21.0,-100.00,ENE,74,5.0,9.0,46,-99.99,,,-99.99,,2013-06-01 09:12:00,
2013-06-01 03:21:00,40.0,21.0,-100.00,ENE,74,5.0,9.0,46,-99.99,,,-99.99,,2013-06-01 09:21:00,
2013-06-01 03:33:00,38.0,21.0,-100.00,ENE,60,7.0,10.0,49,-99.99,,,-99.99,,2013-06-01 09:33:00,
2013-06-01 03:42:00,39.0,22.0,-100.00,ENE,64,11.0,11.0,50,-99.99,,,-99.99,,2013-06-01 09:42:00,
2013-06-01 03:53:00,39.0,22.0,-100.00,East,80,11.0,12.0,49,-99.99,,,-99.99,,2013-06-01 09:53:00,
2013-06-01 04:02:00,39.0,22.0,-100.00,East,79,11.0,12.0,49,-99.99,,,-99.99,,2013-06-01 10:02:00,
2013-06-01 04:12:00,38.0,21.0,-100.00,East,79,10.0,10.0,49,-99.99,,,-99.99,,2013-06-01 10:12:00,
2013-06-01 04:22:00,38.0,21.0,-100.00,ENE,64,10.0,10.0,49,-99.99,,,-99.99,,2013-06-01 10:22:00,
2013-06-01 04:32:00,39.0,21.0,-100.00,ENE,60,7.0,9.0,47,-99.99,,,-99.99,,2013-06-01 10:32:00,
2013-06-01 04:42:00,37.0,22.0,-100.00,East,79,12.0,12.0,53,-99.99,,,-99.99,,2013-06-01 10:42:00,
2013-06-01 04:52:00,37.0,21.0,-100.00,ENE,58,9.0,12.0,51,-99.99,,,-99.99,,2013-06-01 10:52:00,
2013-06-01 05:02:00,36.0,22.0,-100.00,North,8,8.0,10.0,54,-99.99,,,-99.99,,2013-06-01 11:02:00,
2013-06-01 05:11:00,36.0,21.0,-100.00,East,84,11.0,11.0,52,-99.99,,,-99.99,,2013-06-01 11:11:00,
2013-06-01 05:21:00,37.0,20.0,-100.00,NNE,23,8.0,11.0,50,-99.99,,,-99.99,,2013-06-01 11:21:00,
2013-06-01 05:32:00,37.0,20.0,-100.00,East,98,1.0,6.0,51,-99.99,,,-99.99,,2013-06-01 11:32:00,
2013-06-01 05:42:00,34.0,20.0,-100.00,ENE,75,5.0,5.0,56,-99.99,,,-99.99,,2013-06-01 11:42:00,
2013-06-01 05:52:00,34.0,21.0,-100.00,East,91,5.0,6.0,57,-99.99,,,-99.99,,2013-06-01 11:52:00,
2013-06-01 06:01:00,31.0,20.0,-100.00,North,9,3.0,7.0,62,-99.99,,,-99.99,,2013-06-01 12:01:00,
2013-06-01 06:11:00,35.0,20.0,-100.00,NNE,33,4.0,9.0,53,-99.99,,,-99.99,,2013-06-01 12:11:00,
2013-06-01 06:21:00,32.0,20.0,-100.00,NNE,20,6.0,6.0,61,-99.99,,,-99.99,,2013-06-01 12:21:00,
2013-06-01 06:32:00,31.0,20.0,-100.00,NE,53,2.0,5.0,63,-99.99,,,-99.99,,2013-06-01 12:32:00,
2013-06-01 06:41:00,36.0,21.0,-100.00,ENE,77,9.0,9.0,53,-99.99,,,-99.99,,2013-06-01 12:41:00,
2013-06-01 06:52:00,37.0,20.0,-100.00,East,85,10.0,10.0,49,-99.99,,,-99.99,,2013-06-01 12:52:00,
2013-06-01 07:01:00,35.0,21.0,-100.00,WSW,244,0.0,7.0,55,-99.99,,,-99.99,,2013-06-01 13:01:00,
2013-06-01 07:11:00,37.0,20.0,-100.00,ENE,72,6.0,8.0,50,-99.99,,,-99.99,,2013-06-01 13:11:00,
2013-06-01 07:22:00,39.0,19.0,-100.00,ENE,65,8.0,9.0,43,-99.99,,,-99.99,,2013-06-01 13:22:00,
2013-06-01 07:32:00,41.0,16.0,-100.00,East,82,9.0,9.0,36,-99.99,,,-99.99,,2013-06-01 13:32:00,
2013-06-01 07:42:00,41.0,16.0,-100.00,East,82,9.0,9.0,36,-99.99,,,-99.99,,2013-06-01 13:42:00,
2013-06-01 07:52:00,42.0,18.0,-100.00,ENE,66,8.0,9.0,38,-99.99,,,-99.99,,2013-06-01 13:52:00,
2013-06-01 08:01:00,43.0,19.0,-100.00,ENE,71,7.0,7.0,37,-99.99,,,-99.99,,2013-06-01 14:01:00,
2013-06-01 08:11:00,45.0,16.0,-100.00,ENE,59,5.0,7.0,31,-99.99,,,-99.99,,2013-06-01 14:11:00,
2013-06-01 08:21:00,46.0,17.0,-100.00,East,96,5.0,6.0,31,-99.99,,,-99.99,,2013-06-01 14:21:00,
2013-06-01 08:32:00,46.0,17.0,-100.00,ESE,105,5.0,7.0,31,-99.99,,,-99.99,,2013-06-01 14:32:00,
2013-06-01 08:42:00,48.0,20.0,-100.00,ENE,78,2.0,6.0,32,-99.99,,,-99.99,,2013-06-01 14:42:00,
2013-06-01 08:52:00,47.0,23.0,-100.00,SSW,212,4.0,4.0,37,-99.99,,,-99.99,,2013-06-01 14:52:00,
2013-06-01 09:01:00,48.0,22.0,-100.00,South,182,3.0,4.0,35,-99.99,,,-99.99,,2013-06-01 15:01:00,
2013-06-01 09:11:00,47.0,22.0,-100.00,SSW,202,6.0,7.0,36,-99.99,,,-99.99,,2013-06-01 15:11:00,
2013-06-01 09:21:00,47.0,23.0,-100.00,WSW,246,6.0,7.0,38,-99.99,,,-99.99,,2013-06-01 15:21:00,
2013-06-01 09:33:00,47.0,24.0,-100.00,WNW,286,2.0,6.0,39,-99.99,,,-99.99,,2013-06-01 15:33:00,
2013-06-01 09:43:00,49.0,27.0,-100.00,SW,216,3.0,4.0,41,-99.99,,,-99.99,,2013-06-01 15:43:00,
2013-06-01 09:53:00,50.0,27.0,-100.00,SW,221,4.0,5.0,41,-99.99,,,-99.99,,2013-06-01 15:53:00,
2013-06-01 10:03:00,51.0,23.0,-100.00,West,267,2.0,6.0,33,-99.99,,,-99.99,,2013-06-01 16:03:00,
2013-06-01 10:12:00,52.0,17.0,-100.00,East,93,0.0,7.0,24,-99.99,,,-99.99,,2013-06-01 16:12:00,
2013-06-01 10:22:00,52.0,20.0,-100.00,West,278,4.0,6.0,28,-99.99,,,-99.99,,2013-06-01 16:22:00,
2013-06-01 10:33:00,52.0,20.0,-100.00,WNW,286,3.0,6.0,27,-99.99,,,-99.99,,2013-06-01 16:33:00,
2013-06-01 10:42:00,53.0,19.0,-100.00,WSW,254,4.0,6.0,25,-99.99,,,-99.99,,2013-06-01 16:42:00,
2013-06-01 10:52:00,54.0,17.0,-100.00,WSW,254,3.0,6.0,22,-99.99,,,-99.99,,2013-06-01 16:52:00,
2013-06-01 11:02:00,54.0,17.0,-100.00,WSW,254,3.0,6.0,22,-99.99,,,-99.99,,2013-06-01 17:02:00,
2013-06-01 11:11:00,57.0,19.0,-100.00,SW,228,5.0,8.0,22,-99.99,,,-99.99,,2013-06-01 17:11:00,
2013-06-01 11:21:00,56.0,19.0,-100.00,SW,220,5.0,9.0,23,-99.99,,,-99.99,,2013-06-01 17:21:00,
2013-06-01 11:32:00,57.0,17.0,-100.00,West,263,5.0,10.0,20,-99.99,,,-99.99,,2013-06-01 17:32:00,
2013-06-01 11:42:00,57.0,18.0,-100.00,WSW,241,7.0,9.0,21,-99.99,,,-99.99,,2013-06-01 17:42:00,
2013-06-01 11:52:00,58.0,19.0,-100.00,West,263,5.0,8.0,21,-99.99,,,-99.99,,2013-06-01 17:52:00,
2013-06-01 12:01:00,58.0,16.0,-100.00,WSW,243,7.0,9.0,19,-99.99,,,-99.99,,2013-06-01 18:01:00,
2013-06-01 12:11:00,59.0,20.0,-100.00,WSW,248,5.0,9.0,21,-99.99,,,-99.99,,2013-06-01 18:11:00,
2013-06-01 12:21:00,60.0,17.0,-100.00,WSW,241,6.0,10.0,18,-99.99,,,-99.99,,2013-06-01 18:21:00,
2013-06-01 12:32:00,61.0,17.0,-100.00,WSW,246,5.0,11.0,17,-99.99,,,-99.99,,2013-06-01 18:32:00,
2013-06-01 12:41:00,60.0,19.0,-100.00,North,3,8.0,11.0,20,-99.99,,,-99.99,,2013-06-01 18:41:00,
2013-06-01 12:51:00,61.0,23.0,-100.00,NNW,343,4.0,9.0,23,-99.99,,,-99.99,,2013-06-01 18:51:00,
2013-06-01 13:01:00,62.0,20.0,-100.00,WNW,295,1.0,9.0,19,-99.99,,,-99.99,,2013-06-01 19:01:00,
2013-06-01 13:11:00,62.0,19.0,-100.00,WNW,282,8.0,12.0,18,-99.99,,,-99.99,,2013-06-01 19:11:00,
2013-06-01 13:21:00,61.0,17.0,-100.00,West,263,8.0,13.0,18,-99.99,,,-99.99,,2013-06-01 19:21:00,
2013-06-01 13:32:00,62.0,18.0,-100.00,WNW,289,5.0,13.0,17,-99.99,,,-99.99,,2013-06-01 19:32:00,
2013-06-01 13:41:00,63.0,23.0,-100.00,WSW,258,4.0,12.0,20,-99.99,,,-99.99,,2013-06-01 19:41:00,
2013-06-01 13:52:00,63.0,19.0,-100.00,WNW,302,9.0,11.0,18,-99.99,,,-99.99,,2013-06-01 19:52:00,
2013-06-01 14:01:00,64.0,19.0,-100.00,WSW,250,6.0,11.0,17,-99.99,,,-99.99,,2013-06-01 20:01:00,
2013-06-01 14:11:00,65.0,19.0,-100.00,SW,217,9.0,13.0,16,-99.99,,,-99.99,,2013-06-01 20:11:00,
2013-06-01 14:21:00,65.0,20.0,-100.00,SW,228,8.0,14.0,17,-99.99,,,-99.99,,2013-06-01 20:21:00,
2013-06-01 14:32:00,66.0,16.0,-100.00,SW,228,10.0,16.0,14,-99.99,,,-99.99,,2013-06-01 20:32:00,
2013-06-01 14:41:00,65.0,19.0,-100.00,WNW,289,7.0,12.0,17,-99.99,,,-99.99,,2013-06-01 20:41:00,
2013-06-01 14:51:00,66.0,20.0,-100.00,WNW,303,4.0,11.0,17,-99.99,,,-99.99,,2013-06-01 20:51:00,
2013-06-01 15:01:00,66.0,14.0,-100.00,WSW,243,6.0,12.0,13,-99.99,,,-99.99,,2013-06-01 21:01:00,
2013-06-01 15:11:00,67.0,14.0,-100.00,SSW,211,5.0,12.0,12,-99.99,,,-99.99,,2013-06-01 21:11:00,
2013-06-01 15:21:00,67.0,14.0,-100.00,WSW,253,7.0,16.0,12,-99.99,,,-99.99,,2013-06-01 21:21:00,
2013-06-01 15:33:00,67.0,16.0,-100.00,West,266,4.0,15.0,13,-99.99,,,-99.99,,2013-06-01 21:33:00,
2013-06-01 15:42:00,67.0,13.0,-100.00,SSW,200,3.0,14.0,12,-99.99,,,-99.99,,2013-06-01 21:42:00,
2013-06-01 15:53:00,67.0,9.0,-100.00,SSW,194,10.0,13.0,10,-99.99,,,-99.99,,2013-06-01 21:53:00,
2013-06-01 16:02:00,67.0,10.0,-100.00,WSW,242,6.0,9.0,10,-99.99,,,-99.99,,2013-06-01 22:02:00,
2013-06-01 16:12:00,69.0,11.0,-100.00,South,180,5.0,9.0,10,-99.99,,,-99.99,,2013-06-01 22:12:00,
2013-06-01 16:22:00,70.0,13.0,-100.00,South,181,2.0,4.0,11,-99.99,,,-99.99,,2013-06-01 22:22:00,
2013-06-01 16:33:00,69.0,15.0,-100.00,West,267,8.0,15.0,12,-99.99,,,-99.99,,2013-06-01 22:33:00,
2013-06-01 16:42:00,69.0,15.0,-100.00,West,267,8.0,15.0,12,-99.99,,,-99.99,,2013-06-01 22:42:00,
2013-06-01 16:52:00,69.0,17.0,-100.00,WSW,244,4.0,8.0,13,-99.99,,,-99.99,,2013-06-01 22:52:00,
2013-06-01 17:02:00,70.0,14.0,-100.00,SSW,209,9.0,12.0,11,-99.99,,,-99.99,,2013-06-01 23:02:00,
2013-06-01 17:11:00,70.0,17.0,-100.00,SSW,205,11.0,16.0,13,-99.99,,,-99.99,,2013-06-01 23:11:00,
2013-06-01 17:21:00,69.0,16.0,-100.00,SSW,201,12.0,16.0,12,-99.99,,,-99.99,,2013-06-01 23:21:00,
2013-06-01 17:32:00,71.0,16.0,-100.00,WSW,257,6.0,12.0,12,-99.99,,,-99.99,,2013-06-01 23:32:00,
2013-06-01 17:42:00,68.0,14.0,-100.00,WSW,250,10.0,12.0,12,-99.99,,,-99.99,,2013-06-01 23:42:00,
2013-06-01 17:52:00,68.0,22.0,-100.00,NW,326,11.0,17.0,17,-99.99,,,-99.99,,2013-06-01 23:52:00,
2013-06-01 18:02:00,68.0,22.0,-100.00,WNW,284,7.0,12.0,17,-99.99,,,-99.99,,2013-06-02 00:02:00,
2013-06-01 18:11:00,68.0,25.0,-100.00,NW,322,11.0,14.0,19,-99.99,,,-99.99,,2013-06-02 00:11:00,
2013-06-01 18:21:00,68.0,24.0,-100.00,NNW,331,10.0,13.0,19,-99.99,,,-99.99,,2013-06-02 00:21:00,
2013-06-01 18:31:00,68.0,23.0,-100.00,WNW,299,8.0,13.0,18,-99.99,,,-99.99,,2013-06-02 00:31:00,
2013-06-01 18:41:00,67.0,28.0,-100.00,NW,313,13.0,16.0,22,-99.99,,,-99.99,,2013-06-02 00:41:00,
2013-06-01 18:51:00,67.0,25.0,-100.00,NNW,332,12.0,16.0,20,-99.99,,,-99.99,,2013-06-02 00:51:00,
2013-06-01 19:01:00,66.0,25.0,-100.00,NNW,330,12.0,18.0,21,-99.99,,,-99.99,,2013-06-02 01:01:00,
2013-06-01 19:11:00,66.0,25.0,-100.00,NNW,334,13.0,15.0,21,-99.99,,,-99.99,,2013-06-02 01:11:00,
2013-06-01 19:21:00,66.0,27.0,-100.00,NNW,335,11.0,17.0,23,-99.99,,,-99.99,,2013-06-02 01:21:00,
2013-06-01 19:32:00,65.0,27.0,-100.00,NW,319,15.0,17.0,24,-99.99,,,-99.99,,2013-06-02 01:32:00,
2013-06-01 19:41:00,65.0,28.0,-100.00,NNW,329,10.0,15.0,24,-99.99,,,-99.99,,2013-06-02 01:41:00,
2013-06-01 19:52:00,65.0,28.0,-100.00,NW,321,9.0,12.0,24,-99.99,,,-99.99,,2013-06-02 01:52:00,
2013-06-01 20:01:00,64.0,28.0,-100.00,NW,319,8.0,13.0,25,-99.99,,,-99.99,,2013-06-02 02:01:00,
2013-06-01 20:12:00,63.0,29.0,-100.00,NNW,334,10.0,11.0,27,-99.99,,,-99.99,,2013-06-02 02:12:00,
2013-06-01 20:21:00,62.0,28.0,-100.00,NNW,332,9.0,12.0,26,-99.99,,,-99.99,,2013-06-02 02:21:00,
2013-06-01 20:32:00,61.0,28.0,-100.00,NNW,339,7.0,9.0,28,-99.99,,,-99.99,,2013-06-02 02:32:00,
2013-06-01 20:41:00,57.0,29.0,-100.00,NNW,333,8.0,8.0,33,-99.99,,,-99.99,,2013-06-02 02:41:00,
2013-06-01 20:51:00,57.0,28.0,-100.00,NNW,338,9.0,10.0,33,-99.99,,,-99.99,,2013-06-02 02:51:00,
2013-06-01 21:01:00,59.0,28.0,-100.00,NNW,336,9.0,11.0,30,-99.99,,,-99.99,,2013-06-02 03:01:00,
2013-06-01 21:11:00,56.0,27.0,-100.00,NNE,13,6.0,9.0,32,-99.99,,,-99.99,,2013-06-02 03:11:00,
2013-06-01 21:21:00,55.0,26.0,-100.00,NNE,19,3.0,6.0,32,-99.99,,,-99.99,,2013-06-02 03:21:00,
2013-06-01 21:33:00,51.0,27.0,-100.00,South,172,0.0,4.0,38,-99.99,,,-99.99,,2013-06-02 03:33:00,
2013-06-01 21:43:00,51.0,27.0,-100.00,East,81,5.0,6.0,39,-99.99,,,-99.99,,2013-06-02 03:43:00,
2013-06-01 21:52:00,56.0,28.0,-100.00,ENE,78,8.0,8.0,33,-99.99,,,-99.99,,2013-06-02 03:52:00,
2013-06-01 22:02:00,57.0,27.0,-100.00,NE,55,7.0,8.0,30,-99.99,,,-99.99,,2013-06-02 04:02:00,
2013-06-01 22:13:00,55.0,28.0,-100.00,ENE,68,6.0,7.0,34,-99.99,,,-99.99,,2013-06-02 04:13:00,
2013-06-01 22:23:00,54.0,28.0,-100.00,ENE,73,7.0,7.0,36,-99.99,,,-99.99,,2013-06-02 04:23:00,
2013-06-01 22:32:00,57.0,29.0,-100.00,ENE,75,9.0,10.0,33,-99.99,,,-99.99,,2013-06-02 04:32:00,
2013-06-01 22:42:00,57.0,28.0,-100.00,NE,53,11.0,11.0,33,-99.99,,,-99.99,,2013-06-02 04:42:00,
2013-06-01 22:52:00,56.0,28.0,-100.00,ENE,59,9.0,11.0,34,-99.99,,,-99.99,,2013-06-02 04:52:00,
2013-06-01 23:02:00,57.0,28.0,-100.00,East,85,6.0,8.0,33,-99.99,,,-99.99,,2013-06-02 05:02:00,
2013-06-01 23:11:00,56.0,28.0,-100.00,East,87,8.0,8.0,33,-99.99,,,-99.99,,2013-06-02 05:11:00,
2013-06-01 23:22:00,56.0,27.0,-100.00,ENE,74,10.0,10.0,33,-99.99,,,-99.99,,2013-06-02 05:22:00,
2013-06-01 23:32:00,54.0,25.0,-100.00,ENE,67,9.0,13.0,32,-99.99,,,-99.99,,2013-06-02 05:32:00,
2013-06-01 23:42:00,53.0,24.0,-100.00,ENE,68,11.0,11.0,32,-99.99,,,-99.99,,2013-06-02 05:42:00,
2013-06-01 23:51:00,53.0,25.0,-100.00,ENE,59,11.0,13.0,33,-99.99,,,-99.99,,2013-06-02 05:51:00,